Time;durP1;ratioP1;P1;durP2;ratioP2;P2;SDS_P1;SDS_P2;PMS_P1;PMS_P2;Temp;Humidity;BMP_temperature;BMP_pressure;BME280_temperature;BME280_humidity;BME280_pressure;Samples;Min_cycle;Max_cycle;Signal;HPM_P1;HPM_P2
2022/05/06 00:00:16;;;;;;;13.13;11.88;;;;;;;14.04;82.08;101300.81;4935974;29;20074;-86
2022/05/06 00:02:43;;;;;;;13.65;11.82;;;;;;;15.33;81.71;101487.38;4935098;29;20066;-86
2022/05/06 00:05:11;;;;;;;12.90;11.60;;;;;;;15.15;81.92;101467.75;4934358;28;20039;-87
2022/05/06 00:07:38;;;;;;;12.95;11.80;;;;;;;15.31;81.63;101489.34;4949490;28;20279;-87
2022/05/06 00:10:06;;;;;;;12.50;10.93;;;;;;;15.06;82.46;101447.22;4950871;28;20062;-87
2022/05/06 00:12:33;;;;;;;14.18;11.85;;;;;;;15.26;82.06;101472.06;4936211;29;20062;-86
2022/05/06 00:15:00;;;;;;;13.32;11.43;;;;;;;14.38;82.38;101319.06;4952038;28;20053;-85
2022/05/06 00:17:27;;;;;;;11.95;10.23;;;;;;;14.66;81.99;101350.25;4933343;28;20051;-88
2022/05/06 00:19:54;;;;;;;13.07;11.82;;;;;;;15.36;82.12;101473.72;4950280;28;20059;-87
2022/05/06 00:22:21;;;;;;;11.82;9.90;;;;;;;15.39;81.91;101464.56;4933831;28;20110;-88
2022/05/06 00:24:49;;;;;;;11.68;10.40;;;;;;;15.32;81.56;101440.22;4937272;29;20051;-84
2022/05/06 00:27:15;;;;;;;13.73;12.07;;;;;;;15.34;82.00;101466.81;4922905;29;20063;-86
2022/05/06 00:29:42;;;;;;;11.32;9.93;;;;;;;15.22;81.85;101454.59;4901187;29;20070;-85
2022/05/06 00:32:09;;;;;;;10.80;9.70;;;;;;;15.33;82.27;101455.28;4916396;29;20422;-88
2022/05/06 00:34:38;;;;;;;11.60;9.70;;;;;;;15.16;82.07;101442.66;4898160;29;20048;-85
2022/05/06 00:37:05;;;;;;;12.73;10.68;;;;;;;15.25;82.47;101446.31;4914660;29;20058;-87
2022/05/06 00:39:32;;;;;;;11.60;10.40;;;;;;;15.14;82.66;101452.66;4915562;29;20486;-87
2022/05/06 00:41:58;;;;;;;13.07;10.73;;;;;;;14.00;82.77;101272.72;4898369;29;20056;-86
2022/05/06 00:44:25;;;;;;;12.50;10.32;;;;;;;15.11;82.84;101451.13;4899080;29;20091;-86
2022/05/06 00:46:54;;;;;;;11.88;10.38;;;;;;;15.00;82.88;101431.72;4915634;29;20088;-88
2022/05/06 00:49:22;;;;;;;12.13;10.88;;;;;;;13.66;83.67;101223.31;4916742;29;20079;-86
2022/05/06 00:51:51;;;;;;;11.43;10.25;;;;;;;14.89;83.79;101412.19;4916669;29;20048;-84
2022/05/06 00:54:21;;;;;;;12.45;10.50;;;;;;;14.80;83.85;101390.84;4899725;29;20067;-85
2022/05/06 00:56:49;;;;;;;10.73;9.75;;;;;;;14.80;83.85;101381.00;4900193;29;20052;-88
2022/05/06 00:59:16;;;;;;;12.32;10.30;;;;;;;15.21;83.30;101436.88;4917648;29;20063;-87
2022/05/06 01:01:43;;;;;;;11.07;9.98;;;;;;;15.15;82.89;101420.44;4899565;29;20064;-88
2022/05/06 01:04:10;;;;;;;12.43;10.40;;;;;;;15.21;83.50;101428.84;4919265;29;20052;-89
2022/05/06 01:06:38;;;;;;;11.43;10.38;;;;;;;13.72;84.06;101189.06;4929165;29;20067;-91
2022/05/06 01:09:05;;;;;;;11.68;10.52;;;;;;;14.92;84.15;101381.66;4897998;29;20139;-87
2022/05/06 01:11:33;;;;;;;11.57;10.48;;;;;;;15.34;83.19;101445.41;4913138;29;20052;-90
2022/05/06 01:14:00;;;;;;;10.55;9.45;;;;;;;15.07;84.41;101433.69;4899909;29;20052;-87
2022/05/06 01:16:32;;;;;;;11.45;10.35;;;;;;;14.17;84.77;101268.47;4899385;29;20487;-88
2022/05/06 01:18:59;;;;;;;11.35;10.00;;;;;;;14.68;84.92;101345.56;4909360;29;20475;-86
2022/05/06 01:21:32;;;;;;;10.95;9.77;;;;;;;15.13;84.26;101405.53;4913821;29;20056;-89
2022/05/06 01:23:59;;;;;;;10.02;8.98;;;;;;;15.21;84.37;101428.84;4896918;29;20506;-87
2022/05/06 01:27:00;;;;;;;10.18;9.27;;;;;;;15.23;84.63;101424.22;4896756;29;20487;-87
2022/05/06 01:29:30;;;;;;;9.82;8.82;;;;;;;15.22;84.33;101420.69;4931376;29;20054;-86
2022/05/06 01:31:58;;;;;;;10.88;9.88;;;;;;;14.04;84.65;101229.59;4934906;29;20051;-86
2022/05/06 01:34:29;;;;;;;10.45;9.48;;;;;;;13.98;84.60;101194.59;4935187;28;20055;-89
2022/05/06 01:37:01;;;;;;;10.35;9.27;;;;;;;14.49;84.77;101279.66;4934928;29;20051;-86
2022/05/06 01:39:30;;;;;;;;;;;;;;;15.31;84.61;101419.78;4935216;28;20070;-85
2022/05/06 01:42:00;;;;;;;10.10;9.00;;;;;;;13.88;84.37;101182.16;4955337;28;19926;-88
2022/05/06 01:44:31;;;;;;;9.40;8.52;;;;;;;14.31;84.51;101236.81;4940864;28;20043;-90
2022/05/06 01:46:59;;;;;;;10.10;9.13;;;;;;;14.80;84.85;101316.00;4953134;28;20485;-86
2022/05/06 01:49:30;;;;;;;10.10;9.20;;;;;;;15.36;85.22;101416.69;4934125;28;20070;-89
2022/05/06 01:51:58;;;;;;;10.45;8.93;;;;;;;14.77;85.70;101324.31;4949752;28;20162;-88
2022/05/06 01:54:25;;;;;;;9.98;9.07;;;;;;;14.05;86.07;101190.38;4933797;29;20142;-89
2022/05/06 01:56:52;;;;;;;9.00;8.23;;;;;;;15.15;85.80;101388.34;4951121;28;20109;-87
2022/05/06 01:59:19;;;;;;;8.98;8.15;;;;;;;14.33;86.13;101239.34;4951379;28;20138;-88
2022/05/06 02:01:46;;;;;;;7.88;7.28;;;;;;;14.54;86.31;101281.94;4952319;28;20676;-86
2022/05/06 02:06:58;;;;;;;6.53;5.97;;;;;;;14.53;85.03;101234.78;4962575;28;20307;-89
2022/05/06 02:09:25;;;;;;;6.95;6.35;;;;;;;14.35;85.78;101225.88;4935242;28;20143;-87
2022/05/06 02:11:53;;;;;;;6.95;6.32;;;;;;;13.97;84.50;101164.41;4951110;28;20090;-86
2022/05/06 02:14:20;;;;;;;6.35;5.72;;;;;;;14.42;84.99;101240.31;4935990;29;20428;-87
2022/05/06 02:16:50;;;;;;;8.82;6.32;;;;;;;14.43;84.96;101240.16;4953093;28;20078;-87
2022/05/06 02:19:18;;;;;;;8.38;7.57;;;;;;;14.48;84.73;101258.44;4950919;28;20089;-87
2022/05/06 02:21:45;;;;;;;7.65;6.65;;;;;;;13.90;83.52;101124.09;4933361;28;20055;-89
2022/05/06 02:24:12;;;;;;;8.70;7.80;;;;;;;13.92;83.86;101141.81;4933748;29;20059;-89
2022/05/06 02:26:39;;;;;;;9.77;6.70;;;;;;;13.80;84.27;101147.31;4933733;29;20150;-87
2022/05/06 02:29:06;;;;;;;8.23;7.53;;;;;;;13.79;84.41;101142.97;4934089;29;20058;-89
2022/05/06 02:34:20;;;;;;;8.43;7.63;;;;;;;13.48;85.79;101118.31;4951078;28;20488;-87
2022/05/06 02:36:47;;;;;;;8.13;7.43;;;;;;;14.39;85.90;101251.28;4949669;28;20422;-88
2022/05/06 02:39:14;;;;;;;8.13;7.32;;;;;;;13.80;85.04;101144.66;4951482;28;20058;-87
2022/05/06 02:41:41;;;;;;;8.00;7.20;;;;;;;14.49;85.44;101270.78;4933475;28;20146;-88
2022/05/06 02:44:08;;;;;;;8.27;7.45;;;;;;;15.05;86.27;101382.19;4933690;29;20059;-87
2022/05/06 02:46:35;;;;;;;7.80;7.10;;;;;;;14.25;85.79;101234.75;4933692;28;20181;-87
2022/05/06 02:49:02;;;;;;;8.15;7.30;;;;;;;13.76;85.40;101123.72;4933634;28;20059;-86
2022/05/06 02:51:30;;;;;;;7.60;6.75;;;;;;;14.47;85.74;101256.75;4950444;28;20062;-87
2022/05/06 02:53:57;;;;;;;7.72;6.35;;;;;;;14.46;86.13;101269.25;4949756;28;20142;-88
2022/05/06 02:56:24;;;;;;;7.38;6.60;;;;;;;14.35;86.67;101271.28;4934110;29;20401;-87
2022/05/06 02:58:52;;;;;;;8.82;7.10;;;;;;;14.44;86.19;101259.69;4950720;28;20118;-88
2022/05/06 03:01:19;;;;;;;10.07;7.35;;;;;;;14.33;85.05;101204.63;4933914;28;20054;-87
2022/05/06 03:03:46;;;;;;;8.05;7.35;;;;;;;13.71;85.33;101132.16;4948772;28;20070;-87
2022/05/06 03:06:12;;;;;;;7.13;6.57;;;;;;;15.16;85.37;101370.44;4933467;29;20043;-88
2022/05/06 03:08:39;;;;;;;7.40;6.70;;;;;;;13.99;85.74;101170.44;4949157;28;20062;-87
2022/05/06 03:11:06;;;;;;;7.68;6.90;;;;;;;14.21;86.08;101211.97;4949064;28;20077;-86
2022/05/06 03:13:33;;;;;;;7.97;7.18;;;;;;;13.91;85.99;101157.00;4948958;28;20051;-87
2022/05/06 03:16:00;;;;;;;7.97;7.20;;;;;;;14.05;85.52;101190.38;4933424;28;20547;-87
2022/05/06 03:18:27;;;;;;;8.07;7.28;;;;;;;14.47;85.87;101259.44;4948394;28;20051;-87
2022/05/06 03:20:54;;;;;;;10.05;7.35;;;;;;;15.06;86.60;101373.16;4950146;28;20055;-89
2022/05/06 03:23:21;;;;;;;8.32;7.43;;;;;;;13.72;85.93;101147.19;4950048;28;20155;-87
2022/05/06 03:25:48;;;;;;;8.00;7.22;;;;;;;14.13;85.27;101190.50;4948997;28;20054;-87
2022/05/06 03:28:15;;;;;;;8.48;7.57;;;;;;;14.96;85.19;101362.50;4948040;28;20083;-90
2022/05/06 03:30:44;;;;;;;7.80;7.05;;;;;;;14.99;84.43;101337.31;4928964;29;20066;-88
2022/05/06 03:33:16;;;;;;;8.68;7.88;;;;;;;14.79;85.59;101312.50;4931171;29;20150;-85
2022/05/06 03:35:43;;;;;;;8.65;7.85;;;;;;;13.79;85.11;101164.31;4930908;29;20058;-87
2022/05/06 03:38:10;;;;;;;8.15;7.45;;;;;;;13.42;85.83;101110.88;4930493;29;20048;-88
2022/05/06 03:40:37;;;;;;;7.60;6.90;;;;;;;14.04;86.11;101210.06;4913960;29;20518;-89
2022/05/06 03:43:06;;;;;;;8.65;7.85;;;;;;;13.86;86.87;101181.44;4913499;29;20086;-86
2022/05/06 03:45:32;;;;;;;9.82;7.82;;;;;;;13.75;86.05;101135.41;4913515;29;20055;-86
2022/05/06 03:47:59;;;;;;;8.30;7.07;;;;;;;14.63;85.81;101281.03;4913509;29;20083;-86
2022/05/06 03:53:13;;;;;;;7.43;6.82;;;;;;;13.34;86.58;101079.59;4931039;29;20074;-87
2022/05/06 03:55:41;;;;;;;8.00;6.72;;;;;;;13.93;86.95;101175.53;4930326;29;20066;-86
2022/05/06 03:58:08;;;;;;;7.80;7.10;;;;;;;13.80;87.42;101168.66;4931412;29;20055;-86
2022/05/06 04:00:34;;;;;;;8.35;7.65;;;;;;;14.85;88.01;101340.47;4914471;29;20048;-84
2022/05/06 04:03:01;;;;;;;8.25;7.45;;;;;;;14.48;87.22;101282.47;4914263;29;20064;-85
2022/05/06 04:05:35;;;;;;;7.75;6.68;;;;;;;14.82;86.65;101316.72;4935142;29;20055;-86
2022/05/06 04:08:02;;;;;;;6.88;6.28;;;;;;;14.37;86.81;101243.44;4925049;29;20086;-88
2022/05/06 04:10:32;;;;;;;6.40;5.90;;;;;;;14.00;87.04;101189.97;4946784;29;20055;-90
2022/05/06 04:12:59;;;;;;;7.18;6.57;;;;;;;13.47;87.06;101108.63;4949105;29;20055;-88
2022/05/06 04:15:26;;;;;;;7.63;6.82;;;;;;;15.05;86.81;101360.81;4962751;29;20138;-86
2022/05/06 04:17:53;;;;;;;6.43;5.88;;;;;;;15.01;86.62;101338.00;4962118;29;20058;-88
2022/05/06 04:25:50;;;;;;;6.63;6.03;;;;;;;14.90;86.54;101356.91;4947892;29;20051;-87
2022/05/06 04:28:17;;;;;;;7.15;6.45;;;;;;;14.82;87.03;101354.13;4919575;29;20064;-86
2022/05/06 04:30:44;;;;;;;7.70;6.90;;;;;;;15.02;86.48;101354.88;4913860;29;20055;-84
2022/05/06 04:33:14;;;;;;;7.55;6.85;;;;;;;14.81;86.19;101325.72;4932105;29;20055;-82
2022/05/06 04:35:41;;;;;;;9.45;7.20;;;;;;;14.87;86.17;101352.69;4930501;29;20509;-85
2022/05/06 04:38:07;;;;;;;7.40;6.72;;;;;;;14.52;86.65;101310.59;4931087;29;20070;-86
2022/05/06 04:40:34;;;;;;;8.00;7.05;;;;;;;14.87;87.22;101371.41;4931303;29;20387;-86
2022/05/06 04:43:01;;;;;;;7.35;6.63;;;;;;;14.97;87.01;101368.69;4930752;29;20055;-86
2022/05/06 04:45:28;;;;;;;7.05;6.47;;;;;;;14.75;87.37;101353.84;4931273;29;20448;-86
2022/05/06 04:47:56;;;;;;;7.78;7.07;;;;;;;14.75;87.03;101344.00;4947205;29;20061;-87
2022/05/06 04:50:23;;;;;;;8.18;7.38;;;;;;;13.77;86.50;101160.94;4931175;29;20417;-89
2022/05/06 04:52:49;;;;;;;7.78;7.07;;;;;;;14.99;86.51;101372.06;4912303;29;20062;-85
2022/05/06 04:55:16;;;;;;;8.02;7.28;;;;;;;14.70;87.61;101348.94;4929824;29;20055;-85
2022/05/06 04:57:43;;;;;;;8.20;7.40;;;;;;;14.65;87.20;101348.53;4914889;29;20051;-85
2022/05/06 05:00:10;;;;;;;7.05;6.35;;;;;;;14.36;87.22;101299.66;4914938;29;20268;-85
2022/05/06 05:02:37;;;;;;;8.40;7.70;;;;;;;14.73;87.90;101356.69;4932062;29;20059;-85
2022/05/06 05:05:04;;;;;;;10.60;7.38;;;;;;;14.93;87.23;101375.34;4932531;29;20060;-86
2022/05/06 05:07:31;;;;;;;7.88;6.03;;;;;;;14.89;87.04;101365.91;4914148;29;20414;-85
2022/05/06 05:09:58;;;;;;;6.50;5.85;;;;;;;14.94;87.54;101379.69;4915206;29;20621;-86
2022/05/06 05:12:26;;;;;;;7.00;6.40;;;;;;;14.89;87.71;101384.63;4915712;29;20067;-87
2022/05/06 05:14:53;;;;;;;7.95;6.60;;;;;;;14.92;87.39;101376.31;4915293;29;20043;-87
2022/05/06 05:17:20;;;;;;;7.40;5.80;;;;;;;13.65;86.97;101160.25;4932191;29;20051;-84
2022/05/06 05:19:49;;;;;;;6.38;5.53;;;;;;;15.00;87.33;101388.94;4915389;29;20054;-87
2022/05/06 05:22:16;;;;;;;6.40;5.80;;;;;;;13.45;87.24;101139.94;4925149;29;20071;-86
2022/05/06 05:24:43;;;;;;;6.22;5.65;;;;;;;13.96;87.44;101224.13;4915524;29;20071;-85
2022/05/06 05:27:10;;;;;;;6.70;5.78;;;;;;;14.95;88.04;101387.56;4914764;29;20498;-86
2022/05/06 05:29:37;;;;;;;6.28;5.78;;;;;;;15.18;86.53;101387.19;4930748;29;20500;-84
2022/05/06 05:32:05;;;;;;;6.53;5.82;;;;;;;14.13;87.08;101251.91;4915080;29;20056;-86
2022/05/06 05:34:32;;;;;;;6.68;5.93;;;;;;;15.00;87.40;101383.59;4929125;29;20075;-86
2022/05/06 05:37:00;;;;;;;6.93;5.20;;;;;;;14.62;87.05;101316.78;4940699;29;20228;-87
2022/05/06 05:39:27;;;;;;;6.40;5.80;;;;;;;14.50;86.87;101307.22;4934584;29;20051;-87
2022/05/06 05:41:54;;;;;;;5.75;5.22;;;;;;;14.97;86.48;101379.38;4937660;29;20070;-86
2022/05/06 05:49:51;;;;;;;5.47;4.97;;;;;;;14.64;87.60;101354.88;4951154;29;20533;-86
2022/05/06 05:52:19;;;;;;;6.30;5.80;;;;;;;14.60;87.48;101334.78;4950932;29;20086;-84
2022/05/06 05:54:46;;;;;;;5.90;5.28;;;;;;;14.89;86.53;101371.28;4951781;29;20047;-85
2022/05/06 05:57:12;;;;;;;5.97;5.47;;;;;;;14.85;87.24;101402.78;4923579;29;20259;-85
2022/05/06 05:59:40;;;;;;;6.00;5.32;;;;;;;14.62;87.34;101356.84;4932285;29;20048;-86
2022/05/06 06:02:08;;;;;;;6.55;5.88;;;;;;;14.44;88.21;101355.88;4914773;29;20067;-83
2022/05/06 06:04:35;;;;;;;5.85;5.35;;;;;;;14.50;88.30;101352.63;4931717;29;20440;-88
2022/05/06 06:07:01;;;;;;;5.72;5.13;;;;;;;14.80;87.67;101396.19;4929966;29;20052;-87
2022/05/06 06:09:28;;;;;;;6.32;5.70;;;;;;;14.86;87.72;101409.00;4914439;29;20409;-85
2022/05/06 06:11:55;;;;;;;5.78;5.20;;;;;;;14.86;87.21;101387.59;4932175;29;20135;-87
2022/05/06 06:14:22;;;;;;;5.75;5.28;;;;;;;13.94;86.96;101251.97;4914401;29;20155;-85
2022/05/06 06:16:50;;;;;;;5.28;4.80;;;;;;;14.79;87.43;101408.72;4933856;29;20103;-85
2022/05/06 06:19:17;;;;;;;6.32;5.72;;;;;;;14.89;87.26;101416.72;4916866;29;20421;-85
2022/05/06 06:21:44;;;;;;;5.75;5.25;;;;;;;14.23;87.72;101318.66;4916935;29;20153;-86
2022/05/06 06:24:12;;;;;;;6.43;5.82;;;;;;;14.23;88.11;101322.16;4931590;29;20062;-85
2022/05/06 06:26:41;;;;;;;5.82;5.35;;;;;;;13.44;87.44;101196.94;4931657;29;20059;-87
2022/05/06 06:29:08;;;;;;;6.25;5.68;;;;;;;14.65;87.59;101388.63;4932347;29;20220;-82
2022/05/06 06:31:37;;;;;;;6.10;5.60;;;;;;;14.79;87.43;101423.91;4915040;29;20498;-87
2022/05/06 06:34:04;;;;;;;8.75;5.53;;;;;;;14.20;87.85;101329.59;4919833;29;20090;-82
2022/05/06 06:36:31;;;;;;;7.10;6.38;;;;;;;14.72;86.92;101405.78;4928980;29;20052;-84
2022/05/06 06:38:57;;;;;;;7.13;6.43;;;;;;;14.73;87.11;101409.28;4929244;29;20051;-84
2022/05/06 06:41:24;;;;;;;7.25;6.68;;;;;;;14.45;87.16;101377.09;4931686;29;20048;-85
2022/05/06 06:43:51;;;;;;;7.45;6.45;;;;;;;14.71;87.71;101432.66;4931359;29;20054;-85
2022/05/06 06:46:18;;;;;;;6.97;6.28;;;;;;;14.62;88.17;101417.47;4931267;29;20506;-84
2022/05/06 06:48:45;;;;;;;6.68;6.15;;;;;;;14.72;88.31;101437.00;4930705;29;20414;-85
2022/05/06 06:51:11;;;;;;;7.28;6.68;;;;;;;14.61;88.05;101418.44;4932124;29;20078;-82
2022/05/06 06:53:38;;;;;;;9.30;6.60;;;;;;;14.44;88.21;101406.63;4932780;29;20047;-84
2022/05/06 06:56:05;;;;;;;8.50;6.57;;;;;;;14.71;88.08;101427.31;4930136;29;20060;-88
2022/05/06 06:58:35;;;;;;;7.53;6.47;;;;;;;14.62;87.74;101421.00;4932119;28;20247;-84
2022/05/06 07:01:05;;;;;;;7.85;6.95;;;;;;;14.69;87.76;101431.94;4930746;29;20129;-84
2022/05/06 07:03:31;;;;;;;7.72;6.28;;;;;;;14.75;87.43;101437.53;4930851;29;20110;-85
2022/05/06 07:14:14;;;;;;;9.98;6.75;;;;;;;14.64;88.13;101420.84;4935804;29;20612;-85
2022/05/06 07:16:41;;;;;;;9.43;7.07;;;;;;;14.70;88.41;101434.47;4935101;29;20451;-86
2022/05/06 07:19:10;;;;;;;10.90;6.65;;;;;;;14.69;88.46;101440.81;4935550;29;20047;-86
2022/05/06 07:21:38;;;;;;;7.88;6.68;;;;;;;13.46;88.13;101227.81;4936933;29;20081;-87
2022/05/06 07:24:08;;;;;;;9.68;6.95;;;;;;;14.03;88.21;101332.03;4933234;29;20094;-86
2022/05/06 07:26:35;;;;;;;9.98;7.10;;;;;;;13.87;88.05;101286.38;4929948;29;20056;-85
2022/05/06 07:29:02;;;;;;;7.80;7.00;;;;;;;14.88;88.29;101439.94;4932423;29;20057;-85
2022/05/06 07:31:29;;;;;;;12.80;7.35;;;;;;;14.85;87.98;101444.72;4933433;29;20051;-84
2022/05/06 07:33:55;;;;;;;7.90;7.10;;;;;;;14.67;87.62;101410.72;4933051;28;20055;-84
2022/05/06 07:36:26;;;;;;;10.23;6.70;;;;;;;14.71;87.66;101414.78;4933091;29;20051;-86
2022/05/06 07:38:52;;;;;;;9.65;6.63;;;;;;;14.28;87.82;101345.78;4934022;29;20048;-85
2022/05/06 07:41:19;;;;;;;8.43;7.60;;;;;;;14.71;88.21;101404.09;4934215;28;20114;-84
2022/05/06 07:43:46;;;;;;;10.75;7.50;;;;;;;14.73;88.24;101410.16;4933082;29;20051;-84
2022/05/06 07:46:13;;;;;;;7.47;6.65;;;;;;;14.89;87.99;101430.91;4949094;28;20055;-86
2022/05/06 07:48:40;;;;;;;8.75;7.45;;;;;;;14.96;88.04;101448.06;4932972;28;20051;-84
2022/05/06 07:51:07;;;;;;;8.70;7.28;;;;;;;14.70;87.84;101410.41;4951262;28;20506;-85
2022/05/06 07:53:34;;;;;;;8.18;7.38;;;;;;;14.90;87.88;101431.75;4934803;28;20062;-86
2022/05/06 07:56:01;;;;;;;9.00;8.07;;;;;;;14.89;87.52;101430.91;4934508;29;20086;-87
2022/05/06 07:58:31;;;;;;;11.20;7.75;;;;;;;14.76;87.69;101425.06;4942888;29;20070;-85
2022/05/06 08:00:57;;;;;;;13.57;7.18;;;;;;;14.57;87.59;101409.88;4950844;28;20047;-84
2022/05/06 08:06:09;;;;;;;9.85;7.13;;;;;;;14.82;87.12;101424.47;4949598;28;20081;-84
2022/05/06 08:08:36;;;;;;;8.00;7.18;;;;;;;14.83;88.04;101449.34;4932750;29;20548;-84
2022/05/06 08:11:03;;;;;;;7.90;6.55;;;;;;;14.87;88.09;101464.13;4933017;28;20051;-87
2022/05/06 08:13:32;;;;;;;7.65;6.07;;;;;;;14.65;87.76;101428.72;4951565;29;20059;-85
2022/05/06 08:16:21;;;;;;;6.80;6.10;;;;;;;14.33;87.00;101357.72;4954976;28;20067;-85
2022/05/06 08:19:05;;;;;;;7.15;6.47;;;;;;;13.40;86.98;101217.72;4950197;28;20672;-85
2022/05/06 08:21:32;;;;;;;6.50;5.93;;;;;;;14.83;87.70;101468.94;4933179;28;20057;-82
2022/05/06 08:23:59;;;;;;;9.65;6.93;;;;;;;14.89;87.38;101464.84;4933404;29;20062;-84
2022/05/06 08:26:26;;;;;;;7.07;6.40;;;;;;;14.93;87.51;101474.25;4950322;28;20062;-86
2022/05/06 08:28:53;;;;;;;9.18;6.90;;;;;;;14.25;87.61;101365.59;4935440;29;20299;-87
2022/05/06 08:31:20;;;;;;;8.50;6.88;;;;;;;14.35;87.79;101378.13;4951901;29;20051;-85
2022/05/06 08:33:48;;;;;;;7.47;6.85;;;;;;;13.44;87.54;101229.75;4952137;29;20467;-86
2022/05/06 08:36:14;;;;;;;8.45;7.55;;;;;;;13.68;87.60;101269.38;4935775;29;20051;-86
2022/05/06 08:38:43;;;;;;;9.23;8.18;;;;;;;13.44;87.17;101210.25;4951699;29;20062;-84
2022/05/06 08:41:10;;;;;;;8.85;7.28;;;;;;;13.42;87.29;101236.22;4953061;29;20059;-84
2022/05/06 08:43:38;;;;;;;9.30;8.10;;;;;;;13.78;87.66;101290.72;4951732;28;20054;-85
2022/05/06 08:51:39;;;;;;;13.70;8.05;;;;;;;14.95;87.62;101477.63;4931322;29;20066;-86
2022/05/06 08:54:05;;;;;;;8.48;7.38;;;;;;;14.83;87.46;101444.00;4916628;29;20059;-86
2022/05/06 08:56:32;;;;;;;8.50;7.20;;;;;;;15.10;87.02;101491.41;4932011;29;20056;-85
2022/05/06 08:58:59;;;;;;;9.60;8.32;;;;;;;14.97;87.59;101491.69;4916359;29;20051;-86
2022/05/06 09:01:27;;;;;;;9.32;7.35;;;;;;;14.99;87.93;101497.75;4917922;29;20067;-86
2022/05/06 09:03:55;;;;;;;7.57;6.90;;;;;;;14.85;87.96;101471.44;4916565;29;20085;-86
2022/05/06 09:06:25;;;;;;;9.38;8.02;;;;;;;14.97;87.79;101497.03;4918856;29;20070;-83
2022/05/06 09:08:54;;;;;;;10.75;7.65;;;;;;;15.03;87.51;101485.78;4916346;29;20052;-85
2022/05/06 09:14:14;;;;;;;11.40;6.93;;;;;;;15.16;87.09;101491.63;4933456;29;20047;-85
2022/05/06 09:16:40;;;;;;;7.60;6.90;;;;;;;15.22;86.69;101500.94;4932107;29;20070;-87
2022/05/06 09:19:21;;;;;;;7.57;6.40;;;;;;;15.15;86.83;101498.00;4915199;29;20056;-84
2022/05/06 09:22:04;;;;;;;10.65;7.30;;;;;;;15.08;87.46;101488.84;4916159;29;20106;-84
2022/05/06 09:24:32;;;;;;;9.18;7.20;;;;;;;14.78;87.89;101439.09;4916186;29;20048;-84
2022/05/06 09:27:07;;;;;;;9.35;6.53;;;;;;;14.53;88.22;101411.13;4917213;29;20118;-83
2022/05/06 09:29:37;;;;;;;8.18;7.38;;;;;;;15.01;88.77;101497.59;4920329;29;20470;-85
2022/05/06 09:32:19;;;;;;;11.40;7.20;;;;;;;14.99;88.96;101478.19;4925568;29;20074;-84
2022/05/06 09:35:13;;;;;;;9.05;6.88;;;;;;;14.13;89.01;101342.72;4922231;29;20514;-84
2022/05/06 09:37:44;;;;;;;7.85;7.00;;;;;;;14.87;88.85;101445.41;4938067;29;20051;-85
2022/05/06 09:40:16;;;;;;;10.90;7.03;;;;;;;15.26;88.88;101501.47;4918405;29;20458;-86
2022/05/06 09:42:58;;;;;;;7.93;6.28;;;;;;;15.15;88.92;101487.28;4917518;29;20447;-86
2022/05/06 09:45:34;;;;;;;8.73;7.70;;;;;;;14.96;88.56;101448.06;4917062;29;20056;-88
2022/05/06 09:48:11;;;;;;;12.43;6.70;;;;;;;14.99;88.33;101446.09;4917048;29;20529;-86
2022/05/06 09:50:43;;;;;;;10.05;7.07;;;;;;;15.29;88.89;101504.72;4916866;29;20135;-85
2022/05/06 09:53:20;;;;;;;9.18;7.15;;;;;;;14.45;88.90;101357.56;4917863;29;20047;-85
2022/05/06 09:55:48;;;;;;;8.50;6.40;;;;;;;14.05;88.53;101286.47;4916176;29;20056;-84
2022/05/06 09:58:16;;;;;;;11.23;7.32;;;;;;;14.43;88.20;101351.53;4916002;29;20052;-86
2022/05/06 10:00:44;;;;;;;11.77;6.43;;;;;;;15.51;88.05;101519.56;4916100;29;20074;-87
2022/05/06 10:03:11;;;;;;;7.47;6.10;;;;;;;14.64;86.69;101352.22;4914220;29;20059;-84
2022/05/06 10:05:39;;;;;;;7.40;6.00;;;;;;;15.40;87.27;101503.69;4930567;29;20098;-85
2022/05/06 10:08:15;;;;;;;10.77;6.50;;;;;;;15.50;88.03;101509.00;4933618;29;20091;-84
2022/05/06 10:10:59;;;;;;;8.35;6.03;;;;;;;15.38;87.97;101498.47;4916956;29;20069;-85
2022/05/06 10:13:30;;;;;;;13.27;6.88;;;;;;;15.04;88.00;101438.47;4933083;29;20061;-86
2022/05/06 10:15:59;;;;;;;12.20;6.75;;;;;;;15.18;88.18;101468.28;4916257;29;20102;-85
2022/05/06 10:18:35;;;;;;;11.80;6.57;;;;;;;14.32;87.47;101310.63;4916426;29;20051;-84
2022/05/06 10:21:04;;;;;;;12.15;6.38;;;;;;;15.01;87.15;101428.91;4919412;29;20138;-84
2022/05/06 10:23:54;;;;;;;8.77;6.40;;;;;;;15.51;87.11;101511.56;4934809;29;20597;-86
2022/05/06 10:26:33;;;;;;;17.23;6.95;;;;;;;15.52;87.84;101507.88;4917622;29;20055;-84
2022/05/06 10:34:57;;;;;;;7.47;6.40;;;;;;;15.69;87.93;101498.22;4939584;29;20304;-83
2022/05/06 10:37:35;;;;;;;10.45;6.07;;;;;;;15.69;87.38;101510.78;4940970;29;20051;-88
2022/05/06 10:40:24;;;;;;;9.63;5.75;;;;;;;15.62;87.19;101509.69;4916720;29;20059;-85
2022/05/06 10:42:52;;;;;;;10.50;5.70;;;;;;;15.21;87.66;101439.56;4931209;29;20052;-84
2022/05/06 10:45:26;;;;;;;14.27;6.20;;;;;;;15.44;88.21;101489.03;4930836;29;20474;-86
2022/05/06 10:47:53;;;;;;;10.65;5.97;;;;;;;15.45;87.95;101466.63;4931563;29;20048;-85
2022/05/06 10:50:22;;;;;;;7.93;5.75;;;;;;;15.67;86.89;101483.31;4932965;29;20060;-85
2022/05/06 10:53:01;;;;;;;8.18;6.15;;;;;;;15.50;87.26;101456.31;4915720;29;20138;-83
2022/05/06 10:55:28;;;;;;;9.68;5.90;;;;;;;15.30;87.45;101438.69;4916282;29;20055;-85
2022/05/06 10:57:56;;;;;;;9.73;6.28;;;;;;;15.72;88.29;101499.78;4932639;29;20058;-88
2022/05/06 11:00:25;;;;;;;7.13;5.80;;;;;;;15.77;87.51;101494.84;4917031;29;20062;-85
2022/05/06 11:02:52;;;;;;;8.50;5.10;;;;;;;15.59;86.96;101479.53;4916587;29;20114;-83
2022/05/06 11:05:21;;;;;;;8.50;5.85;;;;;;;15.76;87.78;101502.03;4932054;29;20048;-87
2022/05/06 11:07:52;;;;;;;7.22;5.10;;;;;;;15.64;87.63;101500.50;4915930;29;20056;-83
2022/05/06 11:10:25;;;;;;;8.05;4.72;;;;;;;15.57;88.62;101513.63;4916487;29;20051;-84
2022/05/06 11:12:54;;;;;;;7.72;5.55;;;;;;;15.62;88.64;101509.69;4931175;29;20063;-86
2022/05/06 11:15:32;;;;;;;10.23;5.35;;;;;;;15.12;88.11;101425.22;5086309;27;20713;-84
2022/05/06 11:18:00;;;;;;;;;;;;;;;15.72;87.17;101507.81;5085890;28;20056;-87
2022/05/06 11:20:33;;;;;;;8.88;5.32;;;;;;;15.54;88.05;101505.91;5085155;28;20381;-88
2022/05/06 11:23:13;;;;;;;9.65;6.18;;;;;;;15.05;88.48;101424.09;5084409;28;20494;-84
2022/05/06 11:25:50;;;;;;;7.80;5.22;;;;;;;15.51;88.47;101495.50;5084756;28;20068;-86
2022/05/06 11:28:27;;;;;;;7.90;5.20;;;;;;;15.57;87.99;101504.75;5084931;28;20056;-86
2022/05/06 11:30:54;;;;;;;12.63;6.63;;;;;;;14.83;88.49;101380.72;5084753;28;20407;-84
2022/05/06 11:33:27;;;;;;;9.32;5.57;;;;;;;15.13;88.10;101427.75;5085499;28;20041;-86
2022/05/06 11:36:01;;;;;;;7.47;5.40;;;;;;;15.60;87.97;101507.97;5085056;28;20513;-84
2022/05/06 11:38:39;;;;;;;9.05;6.00;;;;;;;15.37;88.27;101467.38;5084632;28;20051;-83
2022/05/06 11:41:08;;;;;;;6.25;5.47;;;;;;;14.71;88.13;101356.00;5085916;28;20052;-86
2022/05/06 11:43:38;;;;;;;9.57;5.90;;;;;;;15.41;88.43;101459.88;5085258;28;20052;-84
2022/05/06 11:48:51;;;;;;;9.75;5.32;;;;;;;15.59;88.23;101513.50;5085839;28;20484;-85
2022/05/06 11:51:30;;;;;;;8.48;5.25;;;;;;;15.71;87.25;101517.69;5085339;28;20048;-85
2022/05/06 11:53:58;;;;;;;10.02;5.22;;;;;;;15.04;86.92;101401.88;5086635;28;20047;-87
2022/05/06 11:56:27;;;;;;;13.43;5.00;;;;;;;14.46;87.66;101322.66;5085949;28;20057;-86
2022/05/06 11:59:00;;;;;;;7.90;5.50;;;;;;;15.20;88.06;101440.56;5084386;28;20058;-86
2022/05/06 12:01:34;;;;;;;8.07;5.93;;;;;;;15.65;87.64;101496.00;5084083;28;20056;-86
2022/05/06 12:04:09;;;;;;;9.65;5.47;;;;;;;15.20;87.20;101427.19;5084229;28;20075;-85
2022/05/06 12:06:41;;;;;;;8.05;6.25;;;;;;;15.34;87.65;101462.31;5084277;28;20048;-83
2022/05/06 12:09:21;;;;;;;8.15;5.53;;;;;;;15.71;86.81;101509.66;5084269;28;20055;-83
2022/05/06 12:12:04;;;;;;;12.60;5.53;;;;;;;15.67;86.58;101504.72;5084062;28;20496;-85
2022/05/06 12:14:30;;;;;;;;;;;;;;;15.63;87.30;101506.00;5084445;28;20131;-85
2022/05/06 12:16:59;;;;;;;6.63;4.95;;;;;;;15.42;87.03;101468.78;5083871;28;19927;-86